Time;durP1;ratioP1;P1;durP2;ratioP2;P2;SDS_P1;SDS_P2;PMS_P1;PMS_P2;Temp;Humidity;BMP_temperature;BMP_pressure;BME280_temperature;BME280_humidity;BME280_pressure;Samples;Min_cycle;Max_cycle;Signal;HPM_P1;HPM_P2
2023/01/01 00:00:17;;;;;;;;;;;21.40;39.10;;;;;;462905;257;2171;-44
2023/01/01 00:02:19;;;;;;;;;;;21.60;38.90;;;;;;462602;257;2114;-44
2023/01/01 00:04:20;;;;;;;;;;;21.80;38.50;;;;;;462739;257;1946;-44
2023/01/01 00:06:21;;;;;;;;;;;22.00;38.20;;;;;;462482;257;1993;-44
2023/01/01 00:08:23;;;;;;;;;;;22.10;37.90;;;;;;462680;257;1755;-43
2023/01/01 00:10:30;;;;;;;;;;;22.20;37.60;;;;;;462728;257;2130;-44
2023/01/01 00:12:31;;;;;;;;;;;22.40;37.40;;;;;;462581;257;2157;-44
2023/01/01 00:14:33;;;;;;;;;;;22.40;37.30;;;;;;462787;257;1926;-43
2023/01/01 00:16:34;;;;;;;;;;;22.40;37.20;;;;;;462564;257;1872;-44
2023/01/01 00:18:35;;;;;;;;;;;22.30;37.40;;;;;;462649;257;1975;-43
2023/01/01 00:20:37;;;;;;;;;;;22.10;37.70;;;;;;462616;257;2156;-44
2023/01/01 00:22:38;;;;;;;;;;;22.00;38.00;;;;;;462491;257;1758;-44
2023/01/01 00:24:39;;;;;;;;;;;21.80;38.20;;;;;;462736;257;1654;-44
2023/01/01 00:26:41;;;;;;;;;;;21.70;38.40;;;;;;462453;257;1735;-44
2023/01/01 00:28:42;;;;;;;;;;;21.70;38.60;;;;;;462588;257;1845;-43
2023/01/01 00:30:43;;;;;;;;;;;21.60;38.70;;;;;;462636;257;1734;-44
2023/01/01 00:32:45;;;;;;;;;;;21.60;38.70;;;;;;462492;257;1785;-44
2023/01/01 00:34:46;;;;;;;;;;;21.60;38.70;;;;;;462668;257;1845;-43
2023/01/01 00:36:47;;;;;;;;;;;21.60;38.70;;;;;;462427;257;1913;-44
2023/01/01 00:38:49;;;;;;;;;;;21.50;38.70;;;;;;462548;257;1962;-43
2023/01/01 00:40:50;;;;;;;;;;;21.60;38.80;;;;;;462407;257;2184;-44
2023/01/01 00:42:51;;;;;;;;;;;21.60;38.80;;;;;;462464;257;2065;-43
2023/01/01 00:44:53;;;;;;;;;;;21.50;38.80;;;;;;462535;257;2110;-43
2023/01/01 00:46:54;;;;;;;;;;;21.50;38.90;;;;;;462283;257;1680;-43
2023/01/01 00:48:55;;;;;;;;;;;21.50;38.90;;;;;;462504;257;1888;-43
2023/01/01 00:50:57;;;;;;;;;;;21.40;38.90;;;;;;462501;257;2126;-44
2023/01/01 00:52:58;;;;;;;;;;;21.40;38.90;;;;;;462447;257;1975;-43
2023/01/01 00:54:59;;;;;;;;;;;21.40;39.00;;;;;;462496;257;2256;-44
2023/01/01 00:57:01;;;;;;;;;;;21.50;39.00;;;;;;462453;257;1762;-43
2023/01/01 00:59:02;;;;;;;;;;;21.40;39.00;;;;;;462566;257;1798;-44
2023/01/01 01:01:03;;;;;;;;;;;21.40;39.00;;;;;;462364;257;2210;-44
2023/01/01 01:03:05;;;;;;;;;;;21.40;39.00;;;;;;462453;257;1726;-43
2023/01/01 01:05:06;;;;;;;;;;;21.40;39.10;;;;;;462469;257;1953;-43
2023/01/01 01:07:07;;;;;;;;;;;21.40;39.10;;;;;;462279;257;1706;-43
2023/01/01 01:09:09;;;;;;;;;;;21.30;39.10;;;;;;462498;257;1912;-43
2023/01/01 01:11:10;;;;;;;;;;;21.30;39.10;;;;;;462296;257;1859;-44
2023/01/01 01:13:11;;;;;;;;;;;21.30;39.00;;;;;;462510;257;1978;-43
2023/01/01 01:15:13;;;;;;;;;;;21.40;39.20;;;;;;462586;257;1850;-43
2023/01/01 01:17:14;;;;;;;;;;;21.30;39.10;;;;;;462581;257;2273;-43
2023/01/01 01:19:17;;;;;;;;;;;21.30;39.10;;;;;;462493;257;1723;-43
2023/01/01 01:21:17;;;;;;;;;;;21.30;39.10;;;;;;462348;257;2176;-43
2023/01/01 01:23:18;;;;;;;;;;;21.30;39.10;;;;;;462571;257;1877;-43
2023/01/01 01:25:19;;;;;;;;;;;21.30;39.10;;;;;;462457;257;1650;-43
2023/01/01 01:27:21;;;;;;;;;;;21.30;39.10;;;;;;462511;257;1706;-43
2023/01/01 01:29:22;;;;;;;;;;;21.30;39.20;;;;;;462525;257;1760;-44
2023/01/01 01:31:23;;;;;;;;;;;21.30;39.20;;;;;;462626;257;1791;-44
2023/01/01 01:33:25;;;;;;;;;;;21.30;39.20;;;;;;462420;257;2167;-44
2023/01/01 01:35:26;;;;;;;;;;;21.40;39.20;;;;;;462457;257;1730;-43
2023/01/01 01:37:27;;;;;;;;;;;21.30;39.20;;;;;;462564;257;1767;-44
2023/01/01 01:39:28;;;;;;;;;;;21.30;39.20;;;;;;462524;257;1826;-43
2023/01/01 01:41:30;;;;;;;;;;;21.30;39.20;;;;;;462453;257;2203;-43
2023/01/01 01:43:31;;;;;;;;;;;21.30;39.10;;;;;;462491;257;1594;-43
2023/01/01 01:45:32;;;;;;;;;;;21.40;39.20;;;;;;462513;257;1921;-44
2023/01/01 01:47:34;;;;;;;;;;;21.30;39.10;;;;;;462377;257;1974;-43
2023/01/01 01:49:35;;;;;;;;;;;21.30;39.10;;;;;;462537;257;1756;-43
2023/01/01 01:51:36;;;;;;;;;;;21.30;39.20;;;;;;462474;257;1834;-44
2023/01/01 01:53:38;;;;;;;;;;;21.30;39.20;;;;;;462528;257;1998;-43
2023/01/01 01:55:39;;;;;;;;;;;21.20;39.20;;;;;;462479;257;2118;-43
2023/01/01 01:57:40;;;;;;;;;;;21.30;39.20;;;;;;462486;257;1713;-43
2023/01/01 01:59:42;;;;;;;;;;;21.30;39.30;;;;;;462558;257;1871;-43
2023/01/01 02:01:43;;;;;;;;;;;21.30;39.30;;;;;;462342;257;2164;-43
2023/01/01 02:03:44;;;;;;;;;;;21.30;39.20;;;;;;462598;257;1612;-43
2023/01/01 02:05:46;;;;;;;;;;;21.30;39.20;;;;;;462482;257;1854;-43
2023/01/01 02:07:47;;;;;;;;;;;21.30;39.10;;;;;;462397;257;1774;-44
2023/01/01 02:09:48;;;;;;;;;;;21.30;39.10;;;;;;462525;257;2066;-43
2023/01/01 02:11:50;;;;;;;;;;;21.30;39.20;;;;;;462457;257;1781;-43
2023/01/01 02:13:51;;;;;;;;;;;21.30;39.20;;;;;;462487;257;1747;-43
2023/01/01 02:15:52;;;;;;;;;;;21.30;39.20;;;;;;462580;257;1940;-43
2023/01/01 02:17:54;;;;;;;;;;;21.30;39.20;;;;;;462511;257;1667;-44
2023/01/01 02:19:55;;;;;;;;;;;21.30;39.20;;;;;;462456;257;1617;-43
2023/01/01 02:21:56;;;;;;;;;;;21.30;39.20;;;;;;462494;257;2210;-43
2023/01/01 02:23:58;;;;;;;;;;;21.40;39.10;;;;;;462599;257;1976;-43
2023/01/01 02:25:59;;;;;;;;;;;21.60;38.70;;;;;;462532;257;2414;-44
2023/01/01 02:28:00;;;;;;;;;;;21.80;38.40;;;;;;462516;257;1692;-43
2023/01/01 02:30:02;;;;;;;;;;;21.90;38.00;;;;;;462520;257;1920;-44
2023/01/01 02:32:03;;;;;;;;;;;22.00;37.80;;;;;;462539;257;2004;-43
2023/01/01 02:34:04;;;;;;;;;;;22.20;37.60;;;;;;462523;257;1913;-44
2023/01/01 02:36:06;;;;;;;;;;;22.30;37.40;;;;;;462564;257;1950;-43
2023/01/01 02:38:07;;;;;;;;;;;22.40;37.30;;;;;;462511;257;2020;-44
2023/01/01 02:40:08;;;;;;;;;;;22.40;37.10;;;;;;462622;257;2490;-43
2023/01/01 02:42:09;;;;;;;;;;;22.50;37.00;;;;;;462503;257;2210;-43
2023/01/01 02:44:11;;;;;;;;;;;22.50;36.90;;;;;;462459;257;1894;-43
2023/01/01 02:46:12;;;;;;;;;;;22.60;36.80;;;;;;462678;257;1906;-44
2023/01/01 02:48:13;;;;;;;;;;;22.60;36.70;;;;;;462717;257;1865;-43
2023/01/01 02:50:15;;;;;;;;;;;22.60;36.70;;;;;;462613;257;2031;-43
2023/01/01 02:52:16;;;;;;;;;;;22.70;36.60;;;;;;462602;257;2110;-43
2023/01/01 02:54:17;;;;;;;;;;;22.80;36.50;;;;;;462691;257;1763;-44
2023/01/01 02:56:19;;;;;;;;;;;22.80;36.40;;;;;;462613;257;2379;-44
2023/01/01 03:00:41;;;;;;;;;;;22.90;36.40;;;;;;453733;257;1760;-43
2023/01/01 03:02:42;;;;;;;;;;;22.90;36.30;;;;;;462616;257;2194;-44
2023/01/01 03:04:43;;;;;;;;;;;22.90;36.20;;;;;;462592;257;1936;-44
2023/01/01 03:06:45;;;;;;;;;;;23.00;36.20;;;;;;462718;257;2181;-44
2023/01/01 03:08:46;;;;;;;;;;;23.00;36.20;;;;;;462647;257;2081;-44
2023/01/01 03:10:47;;;;;;;;;;;23.00;36.10;;;;;;462591;257;1908;-44
2023/01/01 03:12:49;;;;;;;;;;;23.10;36.10;;;;;;462614;257;2018;-44
2023/01/01 03:14:50;;;;;;;;;;;23.10;36.10;;;;;;462467;257;1577;-44
2023/01/01 03:16:51;;;;;;;;;;;23.10;36.00;;;;;;462511;257;1816;-43
2023/01/01 03:19:09;;;;;;;;;;;23.10;35.90;;;;;;462500;257;1672;-43
2023/01/01 03:20:55;;;;;;;;;;;23.10;35.90;;;;;;461245;257;1916;-43
2023/01/01 03:22:56;;;;;;;;;;;23.20;35.90;;;;;;462523;257;2248;-44
2023/01/01 03:24:57;;;;;;;;;;;23.20;35.90;;;;;;462481;257;1937;-44
2023/01/01 03:26:59;;;;;;;;;;;23.20;35.80;;;;;;462401;257;1737;-44
2023/01/01 03:29:00;;;;;;;;;;;23.20;35.80;;;;;;462566;257;2261;-43
2023/01/01 03:31:01;;;;;;;;;;;23.20;35.80;;;;;;462346;257;1707;-43
2023/01/01 03:33:03;;;;;;;;;;;23.30;35.80;;;;;;462441;257;1731;-44
2023/01/01 03:35:04;;;;;;;;;;;23.30;35.80;;;;;;462643;257;2546;-44
2023/01/01 03:37:05;;;;;;;;;;;23.30;35.80;;;;;;462498;257;2099;-44
2023/01/01 03:39:07;;;;;;;;;;;23.30;35.80;;;;;;462467;257;1837;-43
2023/01/01 03:41:08;;;;;;;;;;;23.30;35.80;;;;;;462485;257;2135;-44
2023/01/01 03:43:09;;;;;;;;;;;23.30;35.70;;;;;;462485;257;2198;-43
2023/01/01 03:45:10;;;;;;;;;;;23.40;35.80;;;;;;462497;257;2182;-44
2023/01/01 03:47:12;;;;;;;;;;;23.40;35.80;;;;;;462453;257;2022;-44
2023/01/01 03:49:13;;;;;;;;;;;23.40;35.70;;;;;;462544;257;1905;-44
2023/01/01 03:51:14;;;;;;;;;;;23.40;35.70;;;;;;462492;257;2221;-43
2023/01/01 03:53:16;;;;;;;;;;;23.40;35.70;;;;;;462481;257;2075;-44
2023/01/01 03:55:17;;;;;;;;;;;23.40;35.70;;;;;;462510;257;1736;-43
2023/01/01 03:57:18;;;;;;;;;;;23.40;35.70;;;;;;462350;257;1772;-43
2023/01/01 03:59:20;;;;;;;;;;;23.30;35.80;;;;;;462498;257;1934;-44
2023/01/01 04:01:21;;;;;;;;;;;23.20;36.00;;;;;;462379;257;2147;-43
2023/01/01 04:03:22;;;;;;;;;;;22.90;36.40;;;;;;462462;257;1727;-43
2023/01/01 04:05:24;;;;;;;;;;;22.80;36.80;;;;;;462444;257;1912;-43
2023/01/01 04:07:25;;;;;;;;;;;22.50;37.00;;;;;;462386;257;1851;-44
2023/01/01 04:09:26;;;;;;;;;;;22.40;37.30;;;;;;462598;257;2032;-43
2023/01/01 04:13:47;;;;;;;;;;;22.30;37.70;;;;;;462559;257;1753;-43
2023/01/01 04:15:48;;;;;;;;;;;22.20;37.80;;;;;;462462;257;2444;-43
2023/01/01 04:17:49;;;;;;;;;;;22.10;38.00;;;;;;462412;257;1586;-44
2023/01/01 04:19:51;;;;;;;;;;;22.00;38.10;;;;;;462559;257;2053;-44
2023/01/01 04:21:52;;;;;;;;;;;22.00;38.20;;;;;;462484;257;2183;-43
2023/01/01 04:23:53;;;;;;;;;;;22.00;38.20;;;;;;462651;257;1934;-43
2023/01/01 04:25:55;;;;;;;;;;;21.90;38.30;;;;;;462525;257;2206;-43
2023/01/01 04:27:57;;;;;;;;;;;21.90;38.40;;;;;;462439;257;1721;-44
2023/01/01 04:29:58;;;;;;;;;;;21.90;38.30;;;;;;462523;257;2011;-43
2023/01/01 04:31:59;;;;;;;;;;;21.90;38.40;;;;;;462427;257;1925;-43
2023/01/01 04:34:00;;;;;;;;;;;21.90;38.40;;;;;;462514;257;2025;-43
2023/01/01 04:36:02;;;;;;;;;;;21.90;38.40;;;;;;462383;257;1712;-43
2023/01/01 04:38:03;;;;;;;;;;;21.80;38.50;;;;;;462438;257;1655;-43
2023/01/01 04:40:04;;;;;;;;;;;21.80;38.50;;;;;;462490;257;1931;-43
2023/01/01 04:42:06;;;;;;;;;;;21.80;38.50;;;;;;462319;257;2195;-43
2023/01/01 04:44:07;;;;;;;;;;;21.80;38.60;;;;;;462524;257;2015;-43
2023/01/01 04:46:08;;;;;;;;;;;21.70;38.60;;;;;;462381;257;1920;-44
2023/01/01 04:48:10;;;;;;;;;;;21.70;38.70;;;;;;462534;257;1733;-44
2023/01/01 04:50:11;;;;;;;;;;;21.70;38.70;;;;;;462729;257;1663;-44
2023/01/01 04:52:12;;;;;;;;;;;21.60;38.80;;;;;;462419;257;1283;-44
2023/01/01 04:54:13;;;;;;;;;;;21.60;38.80;;;;;;462618;257;1741;-43
2023/01/01 04:56:15;;;;;;;;;;;21.60;38.80;;;;;;462456;257;1812;-43
2023/01/01 04:58:16;;;;;;;;;;;21.60;38.70;;;;;;462581;257;2228;-43
2023/01/01 05:00:18;;;;;;;;;;;21.60;38.80;;;;;;462674;257;1873;-43
2023/01/01 05:02:19;;;;;;;;;;;21.60;38.80;;;;;;462426;257;2203;-43
2023/01/01 05:04:20;;;;;;;;;;;21.60;38.80;;;;;;462680;257;1746;-44
2023/01/01 05:06:21;;;;;;;;;;;21.60;38.70;;;;;;462422;257;1999;-43
2023/01/01 05:08:23;;;;;;;;;;;21.60;38.70;;;;;;462601;257;1729;-43
2023/01/01 05:10:24;;;;;;;;;;;21.60;38.80;;;;;;462691;257;2028;-44
2023/01/01 05:12:25;;;;;;;;;;;21.60;38.80;;;;;;462596;257;2004;-43
2023/01/01 05:14:27;;;;;;;;;;;21.60;38.80;;;;;;462631;257;2095;-43
2023/01/01 05:16:28;;;;;;;;;;;21.60;38.80;;;;;;462763;257;2210;-43
2023/01/01 05:18:29;;;;;;;;;;;21.60;38.90;;;;;;462629;257;1727;-43
2023/01/01 05:20:31;;;;;;;;;;;21.60;38.90;;;;;;462631;257;1875;-43
2023/01/01 05:22:32;;;;;;;;;;;21.50;38.90;;;;;;462670;257;2214;-43
2023/01/01 05:24:36;;;;;;;;;;;21.50;38.90;;;;;;462603;257;1794;-44
2023/01/01 05:26:35;;;;;;;;;;;21.50;38.90;;;;;;462408;257;1720;-43
2023/01/01 05:28:36;;;;;;;;;;;21.50;38.80;;;;;;462588;257;1618;-43
2023/01/01 05:30:37;;;;;;;;;;;21.50;38.90;;;;;;462564;257;2187;-44
2023/01/01 05:32:39;;;;;;;;;;;21.50;38.90;;;;;;462614;257;1841;-43
2023/01/01 05:34:40;;;;;;;;;;;21.50;38.90;;;;;;462557;257;2026;-44
2023/01/01 05:36:41;;;;;;;;;;;21.50;39.00;;;;;;462530;257;1736;-44
2023/01/01 05:38:43;;;;;;;;;;;21.40;39.00;;;;;;462519;257;2123;-43
2023/01/01 05:40:44;;;;;;;;;;;21.40;39.00;;;;;;462502;257;1947;-44
2023/01/01 05:42:45;;;;;;;;;;;21.40;39.00;;;;;;462385;257;2199;-43
2023/01/01 05:44:47;;;;;;;;;;;21.40;39.00;;;;;;462526;257;2834;-43
2023/01/01 05:46:48;;;;;;;;;;;21.40;39.00;;;;;;462346;257;1730;-43
2023/01/01 05:48:49;;;;;;;;;;;21.40;39.10;;;;;;462638;257;2070;-43
2023/01/01 05:50:50;;;;;;;;;;;21.30;39.10;;;;;;462445;257;1824;-43
2023/01/01 05:52:52;;;;;;;;;;;21.40;39.10;;;;;;462441;257;1728;-44
2023/01/01 05:54:53;;;;;;;;;;;21.30;39.00;;;;;;462578;257;1729;-43
2023/01/01 05:56:54;;;;;;;;;;;21.40;39.10;;;;;;462550;257;1907;-44
2023/01/01 05:58:56;;;;;;;;;;;21.40;39.10;;;;;;462559;257;1958;-43
2023/01/01 06:00:57;;;;;;;;;;;21.40;39.00;;;;;;462680;257;2091;-44
2023/01/01 06:02:58;;;;;;;;;;;21.40;39.10;;;;;;462518;257;2248;-44
2023/01/01 06:05:00;;;;;;;;;;;21.40;39.10;;;;;;462527;257;2241;-44
2023/01/01 06:07:01;;;;;;;;;;;21.40;39.10;;;;;;462521;257;1882;-43
2023/01/01 06:09:02;;;;;;;;;;;21.30;39.10;;;;;;462550;257;1992;-44
2023/01/01 06:11:04;;;;;;;;;;;21.30;39.10;;;;;;462562;257;1744;-43
2023/01/01 06:13:05;;;;;;;;;;;21.30;39.10;;;;;;462510;257;2128;-44
2023/01/01 06:15:06;;;;;;;;;;;21.40;39.10;;;;;;462523;257;1859;-43
2023/01/01 06:17:08;;;;;;;;;;;21.30;39.00;;;;;;462513;257;2309;-43
2023/01/01 06:19:09;;;;;;;;;;;21.40;39.10;;;;;;462647;257;1741;-44
2023/01/01 06:21:10;;;;;;;;;;;21.30;39.00;;;;;;462506;257;1842;-44
2023/01/01 06:23:12;;;;;;;;;;;21.40;39.10;;;;;;462617;257;2204;-44
2023/01/01 06:25:13;;;;;;;;;;;21.40;39.00;;;;;;462556;257;1864;-43
2023/01/01 06:27:14;;;;;;;;;;;21.40;39.00;;;;;;462611;257;1756;-43
2023/01/01 06:29:16;;;;;;;;;;;21.30;39.00;;;;;;462655;257;1968;-43
2023/01/01 06:31:17;;;;;;;;;;;21.30;39.00;;;;;;462613;257;1936;-44
2023/01/01 06:33:18;;;;;;;;;;;21.30;39.10;;;;;;462604;257;2223;-43
2023/01/01 06:35:20;;;;;;;;;;;21.30;39.10;;;;;;462620;257;1911;-43
2023/01/01 06:37:21;;;;;;;;;;;21.30;39.10;;;;;;462643;257;1731;-43
2023/01/01 06:39:22;;;;;;;;;;;21.30;39.10;;;;;;462600;257;1962;-43
2023/01/01 06:41:24;;;;;;;;;;;21.30;39.10;;;;;;462622;257;1688;-43
2023/01/01 06:43:25;;;;;;;;;;;21.30;39.20;;;;;;462591;257;2209;-43
2023/01/01 06:45:26;;;;;;;;;;;21.30;39.20;;;;;;462687;257;1700;-43
2023/01/01 06:47:28;;;;;;;;;;;21.30;39.20;;;;;;462569;257;1914;-43
2023/01/01 06:49:29;;;;;;;;;;;21.30;39.20;;;;;;462535;257;1960;-43
2023/01/01 06:51:30;;;;;;;;;;;21.30;39.10;;;;;;462459;257;1747;-43
2023/01/01 06:53:32;;;;;;;;;;;21.30;39.10;;;;;;462514;257;2268;-43
2023/01/01 06:55:34;;;;;;;;;;;21.30;39.10;;;;;;462555;257;1742;-43
2023/01/01 06:57:35;;;;;;;;;;;21.30;39.10;;;;;;462443;257;2686;-43
2023/01/01 06:59:36;;;;;;;;;;;21.20;39.10;;;;;;462487;257;1685;-43
2023/01/01 07:01:38;;;;;;;;;;;21.30;39.10;;;;;;462516;257;1759;-44
2023/01/01 07:03:38;;;;;;;;;;;21.30;39.10;;;;;;462392;257;2391;-43
2023/01/01 07:05:39;;;;;;;;;;;21.20;39.10;;;;;;462393;257;1730;-43
2023/01/01 07:07:41;;;;;;;;;;;21.30;39.20;;;;;;462495;257;2223;-44
2023/01/01 07:09:42;;;;;;;;;;;21.30;39.20;;;;;;462612;257;2220;-43
2023/01/01 07:11:43;;;;;;;;;;;21.30;39.10;;;;;;462414;257;1738;-43
2023/01/01 07:13:45;;;;;;;;;;;21.20;39.10;;;;;;462588;257;1751;-43
2023/01/01 07:15:46;;;;;;;;;;;21.30;39.20;;;;;;462596;257;1787;-43
2023/01/01 07:17:47;;;;;;;;;;;21.30;39.20;;;;;;462509;257;1994;-43
2023/01/01 07:19:49;;;;;;;;;;;21.30;39.20;;;;;;462663;257;2228;-43
2023/01/01 07:21:50;;;;;;;;;;;21.30;39.10;;;;;;462582;257;1735;-44
2023/01/01 07:23:51;;;;;;;;;;;21.30;39.10;;;;;;462645;257;2195;-44
2023/01/01 07:25:53;;;;;;;;;;;21.20;39.10;;;;;;462508;257;1850;-44
2023/01/01 07:27:54;;;;;;;;;;;21.30;39.20;;;;;;462505;257;1933;-43
2023/01/01 07:29:55;;;;;;;;;;;21.20;39.10;;;;;;462549;257;1732;-43
2023/01/01 07:31:57;;;;;;;;;;;21.20;39.20;;;;;;462429;257;1699;-43
2023/01/01 07:33:58;;;;;;;;;;;21.20;39.20;;;;;;462509;257;2050;-43
2023/01/01 07:35:59;;;;;;;;;;;21.20;39.30;;;;;;462417;257;2003;-43
2023/01/01 07:38:01;;;;;;;;;;;21.20;39.20;;;;;;462435;257;1736;-43
2023/01/01 07:40:02;;;;;;;;;;;21.20;39.20;;;;;;462621;257;1876;-43
2023/01/01 07:42:03;;;;;;;;;;;21.20;39.10;;;;;;462543;257;1940;-43
2023/01/01 07:44:05;;;;;;;;;;;21.20;39.20;;;;;;462528;257;2198;-44
2023/01/01 07:46:06;;;;;;;;;;;21.20;39.20;;;;;;462502;257;1857;-44
2023/01/01 07:48:07;;;;;;;;;;;21.20;39.20;;;;;;462556;257;1778;-44
2023/01/01 07:50:09;;;;;;;;;;;21.20;39.10;;;;;;462538;257;1580;-43
2023/01/01 07:52:10;;;;;;;;;;;21.20;39.10;;;;;;462446;257;1919;-44
2023/01/01 07:54:11;;;;;;;;;;;21.20;39.20;;;;;;462501;257;1884;-44
2023/01/01 07:56:13;;;;;;;;;;;21.10;39.20;;;;;;462503;257;1875;-43
2023/01/01 07:58:14;;;;;;;;;;;21.20;39.30;;;;;;462471;257;1708;-43
2023/01/01 08:00:15;;;;;;;;;;;21.20;39.30;;;;;;462470;257;1724;-44
2023/01/01 08:02:16;;;;;;;;;;;21.20;39.20;;;;;;462378;257;1821;-43
2023/01/01 08:04:18;;;;;;;;;;;21.20;39.20;;;;;;462479;257;2203;-44
2023/01/01 08:06:21;;;;;;;;;;;21.20;39.10;;;;;;462376;257;1753;-43
2023/01/01 08:08:20;;;;;;;;;;;21.20;39.20;;;;;;462437;257;1676;-44
2023/01/01 08:10:22;;;;;;;;;;;21.20;39.10;;;;;;462470;257;1704;-44
2023/01/01 08:12:23;;;;;;;;;;;21.20;39.10;;;;;;462380;257;2056;-43
2023/01/01 08:14:24;;;;;;;;;;;21.20;39.30;;;;;;462541;257;2483;-44
2023/01/01 08:16:26;;;;;;;;;;;21.20;39.20;;;;;;462362;257;2008;-44
2023/01/01 08:18:27;;;;;;;;;;;21.10;39.20;;;;;;462488;257;1745;-43
2023/01/01 08:20:28;;;;;;;;;;;21.20;39.20;;;;;;462466;257;1806;-43
2023/01/01 08:22:30;;;;;;;;;;;21.20;39.20;;;;;;462660;257;2423;-43
2023/01/01 08:24:31;;;;;;;;;;;21.20;39.20;;;;;;462498;257;2192;-43
2023/01/01 08:26:32;;;;;;;;;;;21.10;39.30;;;;;;462500;257;1723;-43
2023/01/01 08:28:34;;;;;;;;;;;21.10;39.20;;;;;;462655;257;2363;-43
2023/01/01 08:30:35;;;;;;;;;;;21.20;39.30;;;;;;462553;257;2211;-44
2023/01/01 08:32:36;;;;;;;;;;;21.20;39.20;;;;;;462522;257;2405;-43
2023/01/01 08:34:38;;;;;;;;;;;21.20;39.20;;;;;;462470;257;1736;-43
2023/01/01 08:36:40;;;;;;;;;;;21.20;39.20;;;;;;462449;257;2149;-44
2023/01/01 08:38:41;;;;;;;;;;;21.10;39.10;;;;;;462536;257;1810;-43
2023/01/01 08:40:42;;;;;;;;;;;21.20;39.20;;;;;;462464;257;2199;-43
2023/01/01 08:42:44;;;;;;;;;;;21.10;39.30;;;;;;462377;257;1913;-43
2023/01/01 08:44:45;;;;;;;;;;;21.10;39.20;;;;;;462615;257;2199;-43
2023/01/01 08:46:46;;;;;;;;;;;21.10;39.20;;;;;;462513;257;2191;-43
2023/01/01 08:48:48;;;;;;;;;;;21.10;39.20;;;;;;462673;257;1719;-43
2023/01/01 08:50:49;;;;;;;;;;;21.10;39.20;;;;;;462614;257;1642;-43
2023/01/01 08:52:50;;;;;;;;;;;21.10;39.20;;;;;;462623;257;1859;-44
2023/01/01 08:54:52;;;;;;;;;;;21.20;39.20;;;;;;462627;257;2058;-43
2023/01/01 08:56:53;;;;;;;;;;;21.10;39.20;;;;;;462505;257;2232;-44
2023/01/01 08:58:54;;;;;;;;;;;21.20;39.20;;;;;;462594;257;1766;-44
2023/01/01 09:00:56;;;;;;;;;;;21.10;39.20;;;;;;462667;257;1728;-43
2023/01/01 09:02:57;;;;;;;;;;;21.10;39.30;;;;;;462781;257;1718;-44
2023/01/01 09:04:58;;;;;;;;;;;21.10;39.30;;;;;;462667;257;2179;-44
2023/01/01 09:07:00;;;;;;;;;;;21.10;39.20;;;;;;462446;257;2209;-44
2023/01/01 09:09:01;;;;;;;;;;;21.10;39.20;;;;;;462502;257;1826;-43
2023/01/01 09:11:02;;;;;;;;;;;21.10;39.20;;;;;;462483;257;1879;-43
2023/01/01 09:13:04;;;;;;;;;;;21.10;39.20;;;;;;462519;257;1984;-43
2023/01/01 09:15:05;;;;;;;;;;;21.20;39.20;;;;;;462506;257;1709;-43
2023/01/01 09:17:06;;;;;;;;;;;21.20;39.20;;;;;;462521;257;1858;-43
2023/01/01 09:19:08;;;;;;;;;;;21.10;39.20;;;;;;462488;257;1903;-43
2023/01/01 09:21:09;;;;;;;;;;;21.10;39.30;;;;;;462422;257;1745;-43
2023/01/01 09:23:10;;;;;;;;;;;21.10;39.30;;;;;;462550;257;1711;-43
2023/01/01 09:25:12;;;;;;;;;;;21.10;39.30;;;;;;462503;257;2214;-43
2023/01/01 09:27:13;;;;;;;;;;;21.10;39.30;;;;;;462426;257;1769;-43
2023/01/01 09:29:17;;;;;;;;;;;21.10;39.30;;;;;;462516;257;1877;-43
2023/01/01 09:31:17;;;;;;;;;;;21.10;39.30;;;;;;462340;257;2280;-43
2023/01/01 09:33:19;;;;;;;;;;;21.10;39.30;;;;;;462535;257;1745;-43
2023/01/01 09:35:20;;;;;;;;;;;21.10;39.40;;;;;;462535;257;1750;-43
2023/01/01 09:37:21;;;;;;;;;;;21.00;39.40;;;;;;462585;257;1750;-43
2023/01/01 09:39:22;;;;;;;;;;;21.10;39.30;;;;;;462540;257;1842;-44
2023/01/01 09:41:24;;;;;;;;;;;21.10;39.30;;;;;;462510;257;2129;-44
2023/01/01 09:43:25;;;;;;;;;;;21.10;39.30;;;;;;462500;257;2234;-43
2023/01/01 09:45:26;;;;;;;;;;;21.10;39.30;;;;;;462443;257;1855;-44
2023/01/01 09:47:28;;;;;;;;;;;21.10;39.30;;;;;;462488;257;2278;-44
2023/01/01 09:49:29;;;;;;;;;;;21.10;39.30;;;;;;462525;257;1763;-43
2023/01/01 09:51:30;;;;;;;;;;;21.10;39.30;;;;;;462442;257;1938;-43
2023/01/01 09:53:32;;;;;;;;;;;21.10;39.30;;;;;;462507;257;1982;-43
2023/01/01 09:55:33;;;;;;;;;;;21.10;39.30;;;;;;462446;257;1890;-43
2023/01/01 09:57:34;;;;;;;;;;;21.10;39.30;;;;;;462430;257;1739;-43
2023/01/01 09:59:36;;;;;;;;;;;21.10;39.30;;;;;;462602;257;1862;-44
2023/01/01 10:01:37;;;;;;;;;;;21.10;39.40;;;;;;462394;257;1585;-43
2023/01/01 10:03:39;;;;;;;;;;;21.00;39.40;;;;;;462455;257;2226;-44
2023/01/01 10:05:40;;;;;;;;;;;21.00;39.40;;;;;;462447;257;1761;-43
2023/01/01 10:07:41;;;;;;;;;;;21.10;39.40;;;;;;462387;257;1933;-44
2023/01/01 10:09:43;;;;;;;;;;;21.20;39.30;;;;;;462461;257;1690;-43
2023/01/01 10:11:44;;;;;;;;;;;21.30;38.80;;;;;;462400;257;1736;-43
2023/01/01 10:13:45;;;;;;;;;;;21.60;38.60;;;;;;462494;257;1905;-44
2023/01/01 10:15:47;;;;;;;;;;;21.70;38.20;;;;;;462478;257;2087;-44
2023/01/01 10:17:48;;;;;;;;;;;21.90;37.90;;;;;;462530;257;2171;-44
2023/01/01 10:19:49;;;;;;;;;;;22.00;37.70;;;;;;462616;257;1790;-44
2023/01/01 10:21:50;;;;;;;;;;;22.10;37.50;;;;;;462514;257;1939;-44
2023/01/01 10:23:52;;;;;;;;;;;22.20;37.30;;;;;;462543;257;2210;-43
2023/01/01 10:25:53;;;;;;;;;;;22.30;37.20;;;;;;462632;257;1918;-44
2023/01/01 10:27:54;;;;;;;;;;;22.30;37.00;;;;;;462471;257;2166;-43
2023/01/01 10:29:56;;;;;;;;;;;22.40;37.00;;;;;;462474;257;1805;-44
2023/01/01 10:31:57;;;;;;;;;;;22.40;36.90;;;;;;462731;257;2160;-44
2023/01/01 10:33:58;;;;;;;;;;;22.50;36.90;;;;;;462494;257;2394;-44
2023/01/01 10:36:00;;;;;;;;;;;22.50;36.70;;;;;;462475;257;1991;-43
2023/01/01 10:38:01;;;;;;;;;;;22.60;36.60;;;;;;462550;257;1979;-44
2023/01/01 10:40:02;;;;;;;;;;;22.60;36.50;;;;;;462476;257;1974;-44
2023/01/01 10:42:04;;;;;;;;;;;22.70;36.50;;;;;;462393;257;1644;-43
2023/01/01 10:44:05;;;;;;;;;;;22.70;36.40;;;;;;462443;257;2180;-44
2023/01/01 10:46:06;;;;;;;;;;;22.70;36.40;;;;;;462379;257;2155;-43
2023/01/01 10:48:08;;;;;;;;;;;22.80;36.40;;;;;;462630;257;1764;-43
2023/01/01 10:50:09;;;;;;;;;;;22.80;36.30;;;;;;462546;257;1941;-44
2023/01/01 10:52:10;;;;;;;;;;;22.80;36.20;;;;;;462487;257;1862;-43
2023/01/01 10:54:12;;;;;;;;;;;22.90;36.20;;;;;;462589;257;1851;-43
2023/01/01 10:56:13;;;;;;;;;;;22.90;36.20;;;;;;462538;257;1723;-44
2023/01/01 10:58:14;;;;;;;;;;;22.90;36.10;;;;;;462551;257;1895;-44
2023/01/01 11:00:16;;;;;;;;;;;22.90;36.10;;;;;;462653;257;2163;-44
2023/01/01 11:02:17;;;;;;;;;;;23.00;36.10;;;;;;462655;257;2288;-43
2023/01/01 11:04:18;;;;;;;;;;;23.00;36.00;;;;;;462600;257;2251;-44
2023/01/01 11:06:20;;;;;;;;;;;23.00;36.00;;;;;;462545;257;1736;-44
2023/01/01 11:08:21;;;;;;;;;;;23.00;36.00;;;;;;462501;257;1791;-43
2023/01/01 11:10:24;;;;;;;;;;;23.00;35.90;;;;;;462529;257;2186;-44
2023/01/01 11:12:24;;;;;;;;;;;23.10;35.90;;;;;;462460;257;1925;-43
2023/01/01 11:14:26;;;;;;;;;;;23.10;35.90;;;;;;462521;257;2334;-44
2023/01/01 11:16:27;;;;;;;;;;;23.10;35.90;;;;;;462519;257;1756;-43
2023/01/01 11:18:34;;;;;;;;;;;23.10;35.80;;;;;;462461;257;1902;-44
2023/01/01 11:20:30;;;;;;;;;;;23.20;35.90;;;;;;462088;257;2191;-44
2023/01/01 11:22:31;;;;;;;;;;;23.20;35.80;;;;;;462345;257;2491;-44
2023/01/01 11:24:32;;;;;;;;;;;23.20;35.80;;;;;;462482;257;2228;-44
2023/01/01 11:26:33;;;;;;;;;;;23.20;35.70;;;;;;462358;257;2024;-43
2023/01/01 11:28:35;;;;;;;;;;;23.20;35.70;;;;;;462501;257;1720;-44
2023/01/01 11:30:36;;;;;;;;;;;23.30;35.70;;;;;;462423;257;2037;-44
2023/01/01 11:32:37;;;;;;;;;;;23.30;35.70;;;;;;462400;257;2193;-44
2023/01/01 11:34:39;;;;;;;;;;;23.30;35.70;;;;;;462459;257;1935;-44
2023/01/01 11:36:40;;;;;;;;;;;23.30;35.70;;;;;;462280;257;1938;-43
2023/01/01 11:38:41;;;;;;;;;;;23.30;35.70;;;;;;462458;257;1861;-44
2023/01/01 11:40:43;;;;;;;;;;;23.30;35.70;;;;;;462412;257;1721;-43
2023/01/01 11:42:44;;;;;;;;;;;23.30;35.70;;;;;;462462;257;1898;-43
2023/01/01 11:44:46;;;;;;;;;;;23.40;35.70;;;;;;462554;257;2195;-43
2023/01/01 11:46:47;;;;;;;;;;;23.40;35.60;;;;;;462331;257;2218;-44
2023/01/01 11:48:48;;;;;;;;;;;23.40;35.60;;;;;;462501;257;1736;-44
2023/01/01 11:50:49;;;;;;;;;;;23.40;35.60;;;;;;462392;257;1738;-44
2023/01/01 11:52:51;;;;;;;;;;;23.40;35.60;;;;;;462441;257;1895;-44
2023/01/01 11:54:52;;;;;;;;;;;23.40;35.60;;;;;;462557;257;1980;-43
2023/01/01 11:56:53;;;;;;;;;;;23.40;35.60;;;;;;462540;257;1695;-44
2023/01/01 11:58:55;;;;;;;;;;;23.40;35.60;;;;;;462499;257;1815;-44
2023/01/01 12:00:56;;;;;;;;;;;23.40;35.50;;;;;;462462;257;1682;-43